Time;durP1;ratioP1;P1;durP2;ratioP2;P2;SDS_P1;SDS_P2;PMS_P1;PMS_P2;Temp;Humidity;BMP_temperature;BMP_pressure;BME280_temperature;BME280_humidity;BME280_pressure;Samples;Min_cycle;Max_cycle;Signal;HPM_P1;HPM_P2
2021/11/29 00:00:55;;;;;;;;;18.00;16.25;;;;;3.82;69.46;100425.84;5060044;28;46229;-58
2021/11/29 00:03:21;;;;;;;;;15.75;13.00;;;;;3.80;69.66;100422.47;5060817;28;45268;-58
2021/11/29 00:05:47;;;;;;;;;18.00;15.75;;;;;3.81;69.51;100425.91;5058040;27;45561;-58
2021/11/29 00:08:13;;;;;;;;;18.50;16.00;;;;;3.82;69.62;100425.00;5058115;28;45452;-58
2021/11/29 00:10:39;;;;;;;;;19.00;13.00;;;;;3.84;69.53;100421.44;5076140;28;46693;-57
2021/11/29 00:13:05;;;;;;;;;18.75;13.00;;;;;3.82;69.69;100419.81;5060896;28;45472;-58
2021/11/29 00:15:31;;;;;;;;;19.25;16.50;;;;;3.81;69.87;100425.91;5058619;28;45484;-60
2021/11/29 00:17:57;;;;;;;;;19.50;14.75;;;;;3.79;69.45;100427.72;5058905;28;45385;-58
2021/11/29 00:20:23;;;;;;;;;19.75;14.25;;;;;3.78;69.97;100426.00;5057569;28;46585;-58
2021/11/29 00:22:50;;;;;;;;;15.25;14.25;;;;;3.77;69.44;100425.16;5055250;28;45306;-58
2021/11/29 00:25:15;;;;;;;;;14.50;12.75;;;;;3.76;69.46;100425.22;5057554;27;45352;-57
2021/11/29 00:27:42;;;;;;;;;19.50;15.50;;;;;3.74;70.04;100437.47;5058411;28;45224;-58
2021/11/29 00:30:10;;;;;;;;;24.00;16.00;;;;;3.71;69.72;100440.16;5056208;28;46158;-58
2021/11/29 00:32:40;;;;;;;;;16.75;13.50;;;;;3.71;69.86;100442.75;5054925;28;47140;-58
2021/11/29 00:35:07;;;;;;;;;19.00;16.75;;;;;3.70;69.92;100444.53;5055854;28;45637;-58
2021/11/29 00:37:33;;;;;;;;;15.25;12.00;;;;;3.68;70.30;100445.50;5056479;28;45520;-58
2021/11/29 00:39:59;;;;;;;;;19.50;15.25;;;;;3.67;69.36;100442.03;5056846;28;45541;-58
2021/11/29 00:42:24;;;;;;;;;24.75;16.25;;;;;3.69;69.58;100449.78;5058786;28;45464;-58
2021/11/29 00:44:50;;;;;;;;;22.50;17.00;;;;;3.69;69.28;100448.03;5057728;28;45465;-57
2021/11/29 00:47:15;;;;;;;;;21.00;17.50;;;;;3.70;69.79;100448.88;5057473;28;45393;-58
2021/11/29 00:49:41;;;;;;;;;22.75;17.25;;;;;3.69;69.69;100450.63;5057351;28;45477;-58
2021/11/29 00:52:07;;;;;;;;;21.00;17.75;;;;;3.69;70.09;100450.63;5056920;28;45466;-57
2021/11/29 00:54:33;;;;;;;;;17.00;15.00;;;;;3.70;70.03;100456.69;5056979;28;45698;-58
2021/11/29 00:56:59;;;;;;;;;22.25;18.25;;;;;3.70;69.35;100464.50;5055327;28;45689;-58
2021/11/29 00:59:25;;;;;;;;;17.25;16.75;;;;;3.68;69.42;100468.94;5071117;28;46628;-58
2021/11/29 01:01:51;;;;;;;;;19.25;17.00;;;;;3.66;69.56;100466.38;5058175;28;45420;-56
2021/11/29 01:04:16;;;;;;;;;21.25;16.50;;;;;3.66;69.46;100463.78;5059410;28;45387;-56
2021/11/29 01:06:42;;;;;;;;;24.50;14.25;;;;;3.64;69.58;100470.81;5060144;28;45629;-57
2021/11/29 01:09:07;;;;;;;;;25.75;20.25;;;;;3.64;69.69;100473.41;5060553;28;46502;-56
2021/11/29 01:11:33;;;;;;;;;22.50;14.00;;;;;3.64;69.59;100469.06;5060665;28;45411;-57
2021/11/29 01:13:58;;;;;;;;;21.75;13.25;;;;;3.64;69.74;100482.06;5060588;28;45481;-57
2021/11/29 01:16:24;;;;;;;;;24.50;17.25;;;;;3.63;70.31;100479.50;5060549;28;45397;-57
2021/11/29 01:18:50;;;;;;;;;14.75;13.75;;;;;3.62;69.79;100481.25;5075275;28;46779;-57
2021/11/29 01:21:17;;;;;;;;;24.25;19.00;;;;;3.61;69.61;100484.75;5059428;28;45410;-57
2021/11/29 01:23:44;;;;;;;;;27.75;18.00;;;;;3.62;69.94;100488.22;5060786;28;45359;-56
2021/11/29 01:26:10;;;;;;;;;20.75;15.50;;;;;3.63;69.09;100490.78;5059857;28;45355;-57
2021/11/29 01:28:37;;;;;;;;;18.75;17.50;;;;;3.62;69.39;100496.88;5060430;28;45435;-57
2021/11/29 01:31:03;;;;;;;;;25.25;16.25;;;;;3.61;69.47;100495.19;5060017;28;45423;-58
2021/11/29 01:33:29;;;;;;;;;13.50;13.00;;;;;3.59;69.54;100501.34;5060544;28;45322;-56
2021/11/29 01:35:54;;;;;;;;;13.50;12.50;;;;;3.59;69.76;100501.34;5060793;28;45320;-56
2021/11/29 01:38:20;;;;;;;;;17.75;12.75;;;;;3.58;69.65;100503.13;5060293;28;45323;-57
2021/11/29 01:40:46;;;;;;;;;18.75;15.50;;;;;3.59;69.77;100502.22;5060312;28;45406;-57
2021/11/29 01:43:14;;;;;;;;;15.00;13.75;;;;;3.59;69.65;100502.22;5060613;28;45279;-56
2021/11/29 01:45:43;;;;;;;;;25.00;15.00;;;;;3.58;70.34;100502.25;5060472;28;45563;-56
2021/11/29 01:48:09;;;;;;;;;25.75;19.00;;;;;3.55;70.10;100503.19;5060345;28;45411;-56
2021/11/29 01:50:38;;;;;;;;;27.75;15.75;;;;;3.53;69.62;100514.59;5060362;28;45378;-57
2021/11/29 01:53:05;;;;;;;;;18.25;15.25;;;;;3.49;69.66;100511.25;5060328;28;45464;-56
2021/11/29 01:55:31;;;;;;;;;21.00;15.00;;;;;3.50;70.04;100506.88;5060399;28;45243;-56
2021/11/29 01:57:57;;;;;;;;;21.25;18.25;;;;;3.50;69.77;100514.69;5059894;28;45291;-56
2021/11/29 02:00:29;;;;;;;;;24.50;19.50;;;;;3.47;70.07;100514.78;5060072;28;45263;-56
2021/11/29 02:02:56;;;;;;;;;20.00;18.50;;;;;3.46;69.98;100515.69;5060197;28;45286;-56
2021/11/29 02:05:23;;;;;;;;;19.50;19.00;;;;;3.45;69.90;100516.59;5060117;27;45257;-56
2021/11/29 02:07:48;;;;;;;;;15.00;14.25;;;;;3.43;69.98;100519.25;5059709;28;45520;-57
2021/11/29 02:10:16;;;;;;;;;15.50;13.75;;;;;3.41;69.98;100521.06;5060265;28;45271;-57
2021/11/29 02:12:41;;;;;;;;;16.50;15.00;;;;;3.39;70.33;100525.44;5060114;28;45349;-56
2021/11/29 02:15:11;;;;;;;;;14.25;9.50;;;;;3.38;69.79;100520.28;5059949;28;45593;-56
2021/11/29 02:17:36;;;;;;;;;14.75;13.25;;;;;3.34;70.02;100525.63;5059749;28;45381;-55
2021/11/29 02:20:04;;;;;;;;;14.25;13.00;;;;;3.34;70.33;100522.16;5106248;27;45672;-56
2021/11/29 02:22:29;;;;;;;;;21.00;12.75;;;;;3.32;70.69;100532.63;5060037;28;45244;-56
2021/11/29 02:24:55;;;;;;;;;15.75;12.00;;;;;3.32;70.51;100535.25;5060009;28;45549;-54
2021/11/29 02:27:21;;;;;;;;;20.00;13.50;;;;;3.32;70.11;100529.19;5059812;28;46318;-56
2021/11/29 02:29:46;;;;;;;;;12.50;12.50;;;;;3.34;70.06;100533.44;5059540;28;45317;-54
2021/11/29 02:32:11;;;;;;;;;18.00;12.75;;;;;3.34;70.23;100523.00;5060182;28;45267;-55
2021/11/29 02:34:37;;;;;;;;;17.75;12.00;;;;;3.35;70.05;100537.72;5059721;28;45402;-55
2021/11/29 02:37:05;;;;;;;;;10.75;8.75;;;;;3.35;70.39;100535.13;5059600;28;45326;-56
2021/11/29 02:39:32;;;;;;;;;10.75;8.75;;;;;3.37;70.09;100542.88;5059845;28;45244;-55
2021/11/29 02:42:01;;;;;;;;;12.00;7.00;;;;;3.38;70.34;100539.38;5059816;28;45243;-55
2021/11/29 02:44:27;;;;;;;;;13.75;10.50;;;;;3.39;70.09;100548.03;5059568;28;45540;-55
2021/11/29 02:46:53;;;;;;;;;12.75;10.00;;;;;3.40;70.47;100549.72;5059700;28;45315;-55
2021/11/29 02:49:19;;;;;;;;;21.75;11.00;;;;;3.38;70.04;100554.16;5059496;28;45298;-56
2021/11/29 02:51:56;;;;;;;;;13.25;9.00;;;;;3.37;70.27;100558.50;5061612;27;45504;-53
2021/11/29 02:54:26;;;;;;;;;14.75;11.25;;;;;3.35;70.22;100549.91;5063034;28;45269;-55
2021/11/29 02:56:55;;;;;;;;;19.00;10.00;;;;;3.34;70.20;100551.66;5063014;28;45585;-54
2021/11/29 02:59:24;;;;;;;;;10.00;9.50;;;;;3.35;70.01;100557.72;5061932;28;45389;-55
2021/11/29 03:01:58;;;;;;;;;15.00;9.25;;;;;3.35;69.91;100562.91;5062914;28;45374;-55
2021/11/29 03:04:27;;;;;;;;;12.75;8.25;;;;;3.35;70.36;100561.16;5062790;28;45389;-54
2021/11/29 03:06:53;;;;;;;;;11.00;11.00;;;;;3.35;70.39;100565.53;5062716;28;45272;-55
2021/11/29 03:09:20;;;;;;;;;19.00;13.00;;;;;3.35;70.15;100561.16;5062960;28;45265;-56
2021/11/29 03:11:47;;;;;;;;;11.00;10.00;;;;;3.33;70.23;100565.56;5062821;28;45444;-56
2021/11/29 03:14:13;;;;;;;;;11.00;11.00;;;;;3.34;70.35;100563.81;5062628;28;45168;-56
2021/11/29 03:16:39;;;;;;;;;12.50;11.00;;;;;3.33;70.25;100570.78;5062446;28;45437;-54
2021/11/29 03:19:04;;;;;;;;;15.75;10.00;;;;;3.34;70.34;100576.84;5071234;28;45361;-54
2021/11/29 03:21:30;;;;;;;;;10.75;8.00;;;;;3.32;70.08;100583.84;5067326;28;45454;-56
2021/11/29 03:24:00;;;;;;;;;11.25;8.50;;;;;3.32;70.44;100589.06;5062862;28;45596;-56
2021/11/29 03:26:28;;;;;;;;;8.75;8.00;;;;;3.30;70.55;100590.84;5062208;27;45227;-54
2021/11/29 03:28:57;;;;;;;;;12.75;11.00;;;;;3.30;70.94;100591.69;5062176;28;45376;-55
2021/11/29 03:31:24;;;;;;;;;8.75;8.25;;;;;3.31;70.48;100589.94;5062432;28;45457;-55
2021/11/29 03:33:55;;;;;;;;;15.00;7.00;;;;;3.31;70.43;100598.59;5062416;28;45242;-55
2021/11/29 03:36:21;;;;;;;;;11.25;9.00;;;;;3.31;70.52;100601.19;5062292;28;45418;-55
2021/11/29 03:38:47;;;;;;;;;9.50;9.00;;;;;3.30;70.39;100598.66;5062449;28;45436;-55
2021/11/29 03:41:12;;;;;;;;;13.75;10.50;;;;;3.29;70.56;100605.59;5062383;28;45333;-53
2021/11/29 03:43:38;;;;;;;;;13.75;8.50;;;;;3.32;70.36;100610.75;5062214;28;45523;-53
2021/11/29 03:46:05;;;;;;;;;12.00;12.00;;;;;3.33;70.71;100619.41;5062024;27;46104;-54
2021/11/29 03:48:31;;;;;;;;;17.00;11.00;;;;;3.33;70.72;100620.25;5061717;27;45403;-54
2021/11/29 03:50:56;;;;;;;;;15.50;12.00;;;;;3.35;70.70;100628.00;5062047;28;45307;-54
2021/11/29 03:53:22;;;;;;;;;12.00;9.00;;;;;3.38;70.42;100633.09;5062318;28;45535;-55
2021/11/29 03:55:48;;;;;;;;;11.75;9.00;;;;;3.39;70.42;100644.38;5077420;28;45342;-54
2021/11/29 03:58:13;;;;;;;;;11.00;7.50;;;;;3.40;70.04;100640.84;5061985;28;45333;-52
2021/11/29 04:00:39;;;;;;;;;10.00;8.50;;;;;3.41;70.46;100643.44;5061842;27;45294;-51
2021/11/29 04:03:04;;;;;;;;;12.50;11.75;;;;;3.41;69.89;100640.00;5061869;28;45302;-54
2021/11/29 04:05:30;;;;;;;;;8.75;7.25;;;;;3.41;70.33;100645.19;5061919;28;46098;-50
2021/11/29 04:07:56;;;;;;;;;13.25;11.00;;;;;3.38;70.54;100653.94;5061361;28;45349;-54
2021/11/29 04:10:21;;;;;;;;;8.00;8.00;;;;;3.39;70.53;100653.03;5062052;28;45464;-47
2021/11/29 04:12:47;;;;;;;;;8.50;8.50;;;;;3.39;71.07;100658.22;5061816;27;45331;-57
2021/11/29 04:15:12;;;;;;;;;9.50;8.25;;;;;3.39;70.53;100650.41;5061396;28;46017;-58
2021/11/29 04:17:41;;;;;;;;;10.50;7.50;;;;;3.36;70.75;100645.31;5061605;27;45267;-57
2021/11/29 04:20:09;;;;;;;;;9.75;6.50;;;;;3.34;70.84;100653.19;5060482;28;45324;-57
2021/11/29 04:22:37;;;;;;;;;8.00;8.00;;;;;3.34;70.85;100660.16;5061512;27;45337;-57
2021/11/29 04:25:03;;;;;;;;;12.25;9.00;;;;;3.34;70.59;100657.53;5059776;28;45994;-57
2021/11/29 04:27:30;;;;;;;;;9.00;7.75;;;;;3.33;70.81;100661.06;5061112;28;45319;-57
2021/11/29 04:29:56;;;;;;;;;11.75;7.50;;;;;3.32;70.82;100656.75;5060932;27;45232;-57
2021/11/29 04:32:21;;;;;;;;;4.00;4.00;;;;;3.33;70.62;100661.06;5061110;28;45557;-57
2021/11/29 04:34:47;;;;;;;;;10.00;6.50;;;;;3.31;70.54;100662.81;5061319;28;45299;-57
2021/11/29 04:37:13;;;;;;;;;7.25;7.00;;;;;3.29;70.79;100668.09;5061361;28;45351;-57
2021/11/29 04:39:38;;;;;;;;;12.75;7.75;;;;;3.28;70.71;100668.13;5061438;28;45500;-57
2021/11/29 04:42:04;;;;;;;;;6.75;6.50;;;;;3.27;70.93;100667.28;5061505;28;45424;-57
2021/11/29 04:44:30;;;;;;;;;11.50;7.00;;;;;3.26;71.03;100676.00;5060963;27;45603;-57
2021/11/29 04:46:56;;;;;;;;;7.50;7.25;;;;;3.26;70.89;100681.22;5061427;28;45283;-57
2021/11/29 04:49:21;;;;;;;;;6.75;6.50;;;;;3.26;70.80;100680.34;5061186;28;45390;-57
2021/11/29 04:51:47;;;;;;;;;6.25;5.00;;;;;3.24;70.87;100695.13;5061272;28;45466;-57
2021/11/29 04:54:14;;;;;;;;;9.25;5.25;;;;;3.24;71.22;100693.41;5061016;28;45296;-57
2021/11/29 04:56:39;;;;;;;;;8.75;7.00;;;;;3.26;70.79;100701.19;5061504;28;45269;-57
2021/11/29 04:59:05;;;;;;;;;6.75;6.75;;;;;3.26;71.09;100695.97;5056422;28;46383;-58
2021/11/29 05:01:31;;;;;;;;;7.00;4.50;;;;;3.26;71.23;100711.59;5052827;28;45330;-58
2021/11/29 05:03:57;;;;;;;;;9.25;7.00;;;;;3.25;70.71;100712.50;5060619;28;45647;-58
2021/11/29 05:06:22;;;;;;;;;10.50;7.50;;;;;3.23;70.66;100711.66;5061038;27;45206;-58
2021/11/29 05:08:48;;;;;;;;;5.00;2.00;;;;;3.23;70.98;100717.72;5061106;27;45684;-58
2021/11/29 05:11:13;;;;;;;;;10.00;8.75;;;;;3.23;70.77;100722.06;5061089;28;45453;-58
2021/11/29 05:13:39;;;;;;;;;7.00;7.00;;;;;3.22;71.03;100718.63;5058276;28;46074;-58
2021/11/29 05:16:05;;;;;;;;;12.75;7.50;;;;;3.20;71.01;100722.19;5060618;28;45326;-58
2021/11/29 05:18:31;;;;;;;;;12.75;10.75;;;;;3.20;70.89;100733.44;5064778;28;45325;-58
2021/11/29 05:20:57;;;;;;;;;11.50;8.00;;;;;3.16;70.88;100742.25;5067662;28;45493;-58
2021/11/29 05:23:22;;;;;;;;;9.50;8.00;;;;;3.15;70.98;100742.25;5060804;28;46266;-58
2021/11/29 05:25:48;;;;;;;;;8.75;8.75;;;;;3.16;71.37;100746.56;5060840;28;45256;-58
2021/11/29 05:28:15;;;;;;;;;10.25;8.50;;;;;3.16;71.36;100749.16;5060532;28;45545;-58
2021/11/29 05:30:41;;;;;;;;;7.25;5.00;;;;;3.17;71.16;100750.91;5060706;28;45648;-58
2021/11/29 05:33:06;;;;;;;;;14.50;7.25;;;;;3.17;71.02;100756.13;5075617;28;45668;-60
2021/11/29 05:35:32;;;;;;;;;7.25;7.25;;;;;3.17;71.29;100761.31;5060689;28;45376;-59
2021/11/29 05:37:58;;;;;;;;;10.25;7.75;;;;;3.19;71.13;100767.31;5060647;28;45429;-58
2021/11/29 05:40:24;;;;;;;;;9.50;7.00;;;;;3.20;71.02;100766.41;5060815;28;45404;-58
2021/11/29 05:42:50;;;;;;;;;17.50;7.00;;;;;3.16;71.34;100767.38;5060230;28;45366;-58
2021/11/29 05:45:16;;;;;;;;;10.50;8.25;;;;;3.15;71.42;100776.94;5060352;28;45405;-58
2021/11/29 05:47:42;;;;;;;;;13.50;7.75;;;;;3.14;71.12;100784.81;5060477;28;45489;-58
2021/11/29 05:50:09;;;;;;;;;11.50;7.50;;;;;3.14;71.12;100784.81;5060670;27;45357;-58
2021/11/29 05:52:36;;;;;;;;;11.50;8.25;;;;;3.13;71.00;100793.50;5058902;28;46678;-58
2021/11/29 05:55:03;;;;;;;;;11.00;10.00;;;;;3.13;71.61;100794.38;5060365;27;45366;-58
2021/11/29 05:57:28;;;;;;;;;2.00;1.00;;;;;3.13;71.25;100791.75;5060386;28;45338;-58
2021/11/29 05:59:54;;;;;;;;;8.25;7.50;;;;;3.12;71.33;100790.06;5060595;28;45545;-58
2021/11/29 06:02:19;;;;;;;;;8.75;7.25;;;;;3.11;71.12;100790.97;5059990;28;46127;-58
2021/11/29 06:04:45;;;;;;;;;8.25;7.50;;;;;3.11;71.26;100792.72;5055656;28;46041;-57
2021/11/29 06:07:10;;;;;;;;;13.50;11.00;;;;;3.11;71.45;100800.53;5057893;28;45413;-58
2021/11/29 06:09:36;;;;;;;;;11.00;8.50;;;;;3.11;71.56;100806.56;5059931;28;45590;-57
2021/11/29 06:12:01;;;;;;;;;17.00;9.00;;;;;3.10;71.45;100812.69;5059994;28;45454;-58
2021/11/29 06:14:27;;;;;;;;;8.25;5.00;;;;;3.11;71.65;100821.34;5051220;28;45447;-58
2021/11/29 06:16:53;;;;;;;;;69.33;49.67;;;;;3.13;71.48;100835.16;5057240;28;45363;-58
2021/11/29 06:19:19;;;;;;;;;11.00;2.00;;;;;3.10;72.10;100825.69;5060155;28;45359;-57
2021/11/29 06:21:44;;;;;;;;;15.25;11.00;;;;;3.14;71.78;100842.06;5059933;28;45283;-58
2021/11/29 06:24:10;;;;;;;;;12.00;9.75;;;;;3.15;71.56;100835.97;5060104;28;45286;-58
2021/11/29 06:26:35;;;;;;;;;14.50;11.00;;;;;3.14;71.25;100842.06;5061741;28;45152;-58
2021/11/29 06:29:01;;;;;;;;;11.50;11.25;;;;;3.12;71.14;100846.47;5063439;28;45208;-58
2021/11/29 06:31:27;;;;;;;;;15.00;12.00;;;;;3.10;71.43;100853.47;5057222;28;45364;-57
2021/11/29 06:33:52;;;;;;;;;11.00;8.75;;;;;3.08;71.57;100856.09;5063213;28;45351;-57
2021/11/29 06:36:18;;;;;;;;;13.00;8.25;;;;;3.03;71.37;100861.44;5063011;28;45430;-57
2021/11/29 06:38:46;;;;;;;;;8.00;4.25;;;;;3.01;71.50;100878.00;5063250;28;45505;-57
2021/11/29 06:41:12;;;;;;;;;11.50;9.00;;;;;3.01;71.00;100880.59;5063067;28;45360;-57
2021/11/29 06:43:37;;;;;;;;;14.25;9.75;;;;;3.01;71.43;100878.84;5062763;28;45376;-57
2021/11/29 06:46:03;;;;;;;;;15.00;11.00;;;;;3.01;71.56;100886.66;5061675;28;45358;-57
2021/11/29 06:48:28;;;;;;;;;9.50;7.75;;;;;3.03;71.62;100887.47;5058524;28;45575;-57
2021/11/29 06:50:54;;;;;;;;;12.00;10.75;;;;;3.03;71.66;100895.25;5062244;28;46134;-57
2021/11/29 06:53:21;;;;;;;;;11.50;11.50;;;;;3.04;71.74;100894.38;5062886;27;45398;-56
2021/11/29 06:55:47;;;;;;;;;12.75;11.25;;;;;3.10;71.67;100897.72;5063268;28;45397;-56
2021/11/29 06:58:13;;;;;;;;;11.00;8.75;;;;;3.14;71.84;100904.53;5063108;28;45575;-57
2021/11/29 07:00:39;;;;;;;;;8.50;5.25;;;;;3.19;71.63;100918.28;5062628;28;46010;-57
2021/11/29 07:03:04;;;;;;;;;18.75;12.50;;;;;3.22;71.54;100919.06;5062720;28;45603;-55
2021/11/29 07:05:30;;;;;;;;;10.50;9.50;;;;;3.23;71.91;100918.16;5062885;28;45429;-58
2021/11/29 07:07:57;;;;;;;;;11.00;11.00;;;;;3.24;71.89;100927.69;5062995;28;45246;-58
2021/11/29 07:10:24;;;;;;;;;16.75;12.00;;;;;3.23;71.46;100936.38;5062666;28;46277;-58
2021/11/29 07:12:51;;;;;;;;;13.50;11.50;;;;;3.23;71.86;100944.19;5061807;28;45431;-58
2021/11/29 07:15:19;;;;;;;;;12.50;11.00;;;;;3.22;72.21;100952.03;5061175;28;45208;-58
2021/11/29 07:17:46;;;;;;;;;12.00;10.25;;;;;3.22;72.06;100955.50;5053503;28;45433;-59
2021/11/29 07:20:11;;;;;;;;;14.00;11.00;;;;;3.24;71.99;100958.94;5076048;28;45479;-58
2021/11/29 07:22:37;;;;;;;;;14.50;7.75;;;;;3.26;72.12;100961.50;5062549;28;45280;-58
2021/11/29 07:25:04;;;;;;;;;20.50;16.75;;;;;3.26;71.75;100964.09;5062695;28;45349;-58
2021/11/29 07:27:32;;;;;;;;;23.75;15.75;;;;;3.28;71.87;100972.72;5062443;27;45376;-58
2021/11/29 07:29:58;;;;;;;;;24.25;17.25;;;;;3.28;71.85;100977.94;5062020;28;45352;-58
2021/11/29 07:32:25;;;;;;;;;22.50;15.50;;;;;3.30;71.65;100978.72;5061957;28;45414;-58
2021/11/29 07:34:51;;;;;;;;;19.00;12.00;;;;;3.34;71.83;100975.16;5061293;28;45446;-58
2021/11/29 07:37:19;;;;;;;;;20.75;18.25;;;;;3.43;71.90;100981.88;5061639;28;45458;-58
2021/11/29 07:39:46;;;;;;;;;27.25;24.75;;;;;3.52;72.01;100979.88;5059193;28;46174;-58
2021/11/29 07:42:12;;;;;;;;;26.25;22.25;;;;;3.59;71.61;100976.22;5062174;28;45342;-55
2021/11/29 07:44:38;;;;;;;;;56.67;47.00;;;;;3.67;71.83;100983.00;5061896;28;45352;-53
2021/11/29 07:47:04;;;;;;;;;52.67;46.33;;;;;3.75;72.02;100978.44;5062211;28;45396;-55
2021/11/29 07:49:30;;;;;;;;;21.00;18.25;;;;;3.82;71.16;100988.63;5055687;28;46096;-54
2021/11/29 07:51:55;;;;;;;;;21.25;15.00;;;;;3.87;71.07;100981.56;5053609;28;45499;-52
2021/11/29 07:54:21;;;;;;;;;19.00;15.50;;;;;3.94;70.89;100987.44;5061771;28;45259;-58
2021/11/29 07:56:46;;;;;;;;;25.25;16.00;;;;;3.99;71.21;100995.13;5061873;28;45424;-55
2021/11/29 07:59:12;;;;;;;;;23.00;20.25;;;;;4.02;71.21;101001.09;5061401;28;45414;-55
2021/11/29 08:01:38;;;;;;;;;20.00;15.00;;;;;4.03;70.57;101000.22;5060496;28;45477;-54
2021/11/29 08:04:03;;;;;;;;;22.25;18.00;;;;;4.05;70.44;101000.19;5060773;28;45469;-54
2021/11/29 08:06:29;;;;;;;;;32.50;26.25;;;;;4.10;71.18;101000.88;5061777;28;45483;-56
2021/11/29 08:08:55;;;;;;;;;33.25;28.50;;;;;4.15;70.67;101019.88;5058340;28;45905;-52
2021/11/29 08:11:21;;;;;;;;;29.25;20.50;;;;;4.22;70.43;101016.19;5060253;28;45619;-52
2021/11/29 08:13:47;;;;;;;;;26.25;23.00;;;;;4.27;70.13;101024.75;5060985;28;45505;-55
2021/11/29 08:16:13;;;;;;;;;32.00;24.75;;;;;4.32;70.43;101020.25;5061760;27;45485;-54
2021/11/29 08:18:39;;;;;;;;;19.50;18.75;;;;;4.33;69.67;101021.94;5066102;28;45792;-53
2021/11/29 08:21:05;;;;;;;;;24.75;20.50;;;;;4.35;70.67;101035.81;5060722;28;45565;-53
2021/11/29 08:23:31;;;;;;;;;27.00;20.25;;;;;4.35;69.97;101035.81;5059050;28;45539;-50
2021/11/29 08:25:57;;;;;;;;;26.50;23.00;;;;;4.34;70.70;101043.66;5053052;28;45788;-53
2021/11/29 08:28:23;;;;;;;;;21.00;17.25;;;;;4.33;70.71;101042.81;5056270;28;45467;-52
2021/11/29 08:30:48;;;;;;;;;17.00;15.75;;;;;4.35;69.99;101043.63;5055671;28;45643;-55
2021/11/29 08:33:14;;;;;;;;;25.00;20.50;;;;;4.30;69.96;101032.47;5071416;28;45466;-53
2021/11/29 08:35:41;;;;;;;;;15.75;13.75;;;;;4.30;69.92;101057.69;5058850;28;45369;-50
2021/11/29 08:38:08;;;;;;;;;21.25;19.00;;;;;4.28;70.01;101056.91;5052721;28;46136;-56
2021/11/29 08:40:34;;;;;;;;;29.25;17.75;;;;;4.23;69.95;101057.00;5058446;28;45332;-56
2021/11/29 08:43:06;;;;;;;;;18.25;17.50;;;;;4.24;70.53;101058.72;5052048;28;45598;-53
2021/11/29 08:45:33;;;;;;;;;32.00;25.75;;;;;4.25;70.46;101057.81;5058388;28;45765;-52
2021/11/29 08:48:01;;;;;;;;;19.50;13.50;;;;;4.27;70.75;101060.41;5054682;28;45570;-48
2021/11/29 08:50:28;;;;;;;;;20.00;16.25;;;;;4.26;70.34;101069.94;5057837;27;45552;-52
2021/11/29 08:52:53;;;;;;;;;15.75;13.00;;;;;4.27;69.96;101068.22;5057232;28;45549;-52
2021/11/29 08:55:19;;;;;;;;;25.00;15.50;;;;;4.28;69.95;101065.56;5055660;28;45411;-52
2021/11/29 08:57:44;;;;;;;;;19.25;14.50;;;;;4.31;70.18;101062.00;5055171;28;45391;-51
2021/11/29 09:00:16;;;;;;;;;28.75;23.00;;;;;4.31;70.16;101069.84;5057955;28;45707;-50
2021/11/29 09:02:42;;;;;;;;;29.75;26.50;;;;;4.30;70.46;101075.94;5053226;28;45396;-51
2021/11/29 09:05:09;;;;;;;;;29.25;24.50;;;;;4.29;70.91;101080.31;5058212;28;45632;-52
2021/11/29 09:07:35;;;;;;;;;27.00;23.00;;;;;4.31;70.13;101077.66;5055123;28;45395;-52
2021/11/29 09:10:03;;;;;;;;;24.25;20.50;;;;;4.31;70.11;101077.66;5055145;28;45386;-53
2021/11/29 09:12:29;;;;;;;;;26.50;23.50;;;;;4.34;70.19;101082.78;5055322;28;45742;-51
2021/11/29 09:14:54;;;;;;;;;25.00;19.25;;;;;4.37;70.17;101078.34;5057467;28;45847;-54
2021/11/29 09:17:20;;;;;;;;;22.50;19.50;;;;;4.40;70.68;101085.22;5055521;28;45974;-54
2021/11/29 09:19:45;;;;;;;;;23.75;19.75;;;;;4.41;70.43;101086.94;5059194;28;45449;-53
2021/11/29 09:22:11;;;;;;;;;32.00;27.50;;;;;4.42;69.78;101091.25;5055176;28;45745;-53
2021/11/29 09:24:37;;;;;;;;;41.50;25.50;;;;;4.40;70.24;101098.25;5058001;28;45519;-50
2021/11/29 09:27:03;;;;;;;;;22.50;20.00;;;;;4.39;70.14;101100.00;5055014;28;45557;-50
2021/11/29 09:29:29;;;;;;;;;29.50;24.25;;;;;4.42;70.92;101104.28;5057278;27;45315;-54
2021/11/29 09:31:56;;;;;;;;;24.50;21.75;;;;;4.45;70.69;101101.59;5055038;28;45472;-51
2021/11/29 09:34:22;;;;;;;;;25.75;19.00;;;;;4.45;70.46;101105.06;5055155;28;45520;-51
2021/11/29 09:36:47;;;;;;;;;33.00;24.50;;;;;4.51;69.83;101113.63;5057731;28;45492;-52
2021/11/29 09:39:13;;;;;;;;;33.75;25.75;;;;;4.53;70.11;101115.28;5054680;28;45575;-53
2021/11/29 09:41:39;;;;;;;;;27.25;23.25;;;;;4.57;70.60;101118.66;5055234;28;45445;-53
2021/11/29 09:44:05;;;;;;;;;27.00;22.75;;;;;4.62;70.14;101125.44;5057640;28;45421;-54
2021/11/29 09:46:32;;;;;;;;;35.25;27.50;;;;;4.68;69.86;101127.91;5054979;28;45523;-52
2021/11/29 09:48:58;;;;;;;;;27.00;19.75;;;;;4.73;70.65;101123.38;5054076;28;45437;-54
2021/11/29 09:51:24;;;;;;;;;29.00;24.00;;;;;4.82;70.21;101129.22;5057746;28;45502;-54
2021/11/29 09:53:50;;;;;;;;;21.25;20.25;;;;;4.88;69.68;101135.13;5054550;28;45618;-53
2021/11/29 09:56:15;;;;;;;;;22.50;18.50;;;;;4.94;70.00;101132.34;5054660;28;45307;-53
2021/11/29 09:58:41;;;;;;;;;25.00;19.00;;;;;5.00;69.60;101146.97;5057140;28;45407;-52
2021/11/29 10:01:08;;;;;;;;;26.25;19.00;;;;;5.08;69.62;101146.75;5057244;28;45386;-55
2021/11/29 10:03:35;;;;;;;;;21.50;18.50;;;;;5.11;69.27;101147.50;5058156;28;45978;-54
2021/11/29 10:06:01;;;;;;;;;25.50;15.75;;;;;5.17;69.84;101149.94;5055908;28;45733;-54
2021/11/29 10:08:36;;;;;;;;;26.75;18.00;;;;;5.21;69.11;101145.47;5060638;27;45629;-54
2021/11/29 10:11:13;;;;;;;;;18.50;14.75;;;;;5.25;69.80;101145.34;5058764;28;45505;-54
2021/11/29 10:14:02;;;;;;;;;22.50;16.25;;;;;5.27;69.89;101151.34;5057533;28;45619;-54
2021/11/29 10:16:32;;;;;;;;;19.50;17.50;;;;;5.27;69.41;101155.72;5058163;28;46703;-51
2021/11/29 10:18:58;;;;;;;;;22.75;17.00;;;;;5.27;69.16;101153.97;5062017;28;45740;-53
2021/11/29 10:21:24;;;;;;;;;22.25;18.25;;;;;5.31;69.87;101152.13;5060823;27;45441;-52
2021/11/29 10:23:52;;;;;;;;;23.50;20.25;;;;;5.37;70.15;101157.16;5055359;27;45351;-53
2021/11/29 10:26:33;;;;;;;;;26.25;19.00;;;;;5.43;69.69;101148.28;5059797;28;45323;-55
2021/11/29 10:29:01;;;;;;;;;29.25;20.75;;;;;5.50;69.05;101152.41;5057570;28;45582;-51
2021/11/29 10:31:40;;;;;;;;;22.75;15.00;;;;;5.54;68.87;101143.59;5058008;27;45789;-53
2021/11/29 10:34:10;;;;;;;;;20.25;13.00;;;;;5.59;69.07;101146.88;5059097;28;45364;-51
2021/11/29 10:36:49;;;;;;;;;23.25;16.50;;;;;5.61;68.47;101147.72;5056850;28;45562;-49
2021/11/29 10:39:24;;;;;;;;;22.25;16.00;;;;;5.66;69.10;101153.63;5057599;28;45557;-50
2021/11/29 10:41:56;;;;;;;;;18.75;16.75;;;;;5.67;68.89;101149.25;5057883;28;45562;-52
2021/11/29 10:44:26;;;;;;;;;24.75;15.75;;;;;5.69;68.30;101150.94;5056828;28;45335;-51
2021/11/29 10:46:56;;;;;;;;;19.00;17.00;;;;;5.72;68.72;101156.03;5059251;28;45484;-50
2021/11/29 10:49:26;;;;;;;;;17.00;13.00;;;;;5.74;69.08;101149.00;5057239;28;45353;-50
2021/11/29 10:51:54;;;;;;;;;22.75;17.50;;;;;5.76;69.22;101152.41;5060478;28;45680;-47
2021/11/29 10:54:26;;;;;;;;;17.25;17.00;;;;;5.77;68.46;101155.91;5057321;27;45668;-51
2021/11/29 10:56:55;;;;;;;;;17.00;14.50;;;;;5.79;69.08;101159.31;5057419;28;46206;-48
2021/11/29 10:59:25;;;;;;;;;21.00;15.25;;;;;5.82;69.00;101162.69;5058816;28;45796;-49
2021/11/29 11:01:54;;;;;;;;;18.25;13.75;;;;;5.85;69.14;101162.59;5054805;28;45437;-52
2021/11/29 11:04:28;;;;;;;;;29.75;16.75;;;;;5.85;68.60;101162.59;5057690;28;45376;-48
2021/11/29 11:06:56;;;;;;;;;18.75;16.00;;;;;5.86;69.24;101164.28;5056746;28;45680;-50
2021/11/29 11:09:31;;;;;;;;;16.75;13.50;;;;;5.93;69.18;101165.00;5084317;27;45419;-51
2021/11/29 11:12:01;;;;;;;;;14.25;12.75;;;;;6.02;68.66;101169.06;5054794;28;45394;-48
2021/11/29 11:14:30;;;;;;;;;13.25;10.00;;;;;6.07;68.71;101173.19;5057433;28;45534;-51
2021/11/29 11:17:09;;;;;;;;;14.00;13.00;;;;;6.11;69.23;101159.13;5058574;28;45511;-52
2021/11/29 11:19:42;;;;;;;;;20.00;13.00;;;;;6.14;68.83;101159.00;5057777;28;45507;-50